createdAt,value
2022-09-25T00:02:10.381Z,6.40
2022-09-25T00:04:38.216Z,6.90
2022-09-25T00:07:07.196Z,5.80
2022-09-25T00:09:36.279Z,6.50
2022-09-25T00:12:03.978Z,5.70
2022-09-25T00:14:33.321Z,6.80
2022-09-25T00:17:02.592Z,6.10
2022-09-25T00:19:50.314Z,6.60
2022-09-25T00:22:24.813Z,5.80
2022-09-25T00:24:52.761Z,5.90
2022-09-25T00:27:20.513Z,5.90
2022-09-25T00:29:48.449Z,5.60
2022-09-25T00:32:16.194Z,5.80
2022-09-25T00:34:46.241Z,6.20
2022-09-25T00:37:14.273Z,6.10
2022-09-25T00:39:42.227Z,6.10
2022-09-25T00:42:14.376Z,5.90
2022-09-25T00:45:02.827Z,5.60
2022-09-25T00:47:44.643Z,6.00
2022-09-25T00:50:28.486Z,7.00
2022-09-25T00:53:06.869Z,5.90
2022-09-25T00:55:38.238Z,6.90
2022-09-25T00:58:08.584Z,6.50
2022-09-25T01:00:36.370Z,5.90
2022-09-25T01:03:07.489Z,6.10
2022-09-25T01:05:43.711Z,7.20
2022-09-25T01:08:18.541Z,6.10
2022-09-25T01:10:48.786Z,6.10
2022-09-25T01:13:19.400Z,6.60
2022-09-25T01:15:53.335Z,6.30
2022-09-25T01:18:46.390Z,6.20
2022-09-25T01:21:56.436Z,5.90
2022-09-25T01:24:40.930Z,7.40
2022-09-25T01:27:51.508Z,7.00
2022-09-25T01:30:21.436Z,6.50
2022-09-25T01:33:05.929Z,6.30
2022-09-25T01:35:40.021Z,6.30
2022-09-25T01:38:40.054Z,6.90
2022-09-25T01:41:23.990Z,6.50
2022-09-25T01:44:02.310Z,6.80
2022-09-25T01:46:45.214Z,7.30
2022-09-25T01:49:33.931Z,7.00
2022-09-25T01:52:12.626Z,6.50
2022-09-25T01:54:53.910Z,6.70
2022-09-25T01:57:34.048Z,6.90
2022-09-25T02:00:14.393Z,6.70
2022-09-25T02:03:02.943Z,6.80
2022-09-25T02:05:45.021Z,7.00
2022-09-25T02:08:25.325Z,6.60
2022-09-25T02:11:00.607Z,7.40
2022-09-25T02:13:47.163Z,6.40
2022-09-25T02:16:34.899Z,6.90
2022-09-25T02:19:25.506Z,6.70
2022-09-25T02:22:10.047Z,6.50
2022-09-25T02:25:13.794Z,6.90
2022-09-25T02:27:45.727Z,6.30
2022-09-25T02:30:17.638Z,7.00
2022-09-25T02:32:45.454Z,6.10
2022-09-25T02:35:13.365Z,7.20
2022-09-25T02:37:43.294Z,7.40
2022-09-25T02:40:15.213Z,7.80
2022-09-25T02:43:13.445Z,6.90
2022-09-25T02:46:10.736Z,7.20
2022-09-25T02:49:06.173Z,6.70
2022-09-25T02:52:20.542Z,6.70
2022-09-25T02:55:06.838Z,7.40
2022-09-25T02:57:57.066Z,6.90
2022-09-25T03:00:27.471Z,7.30
2022-09-25T03:03:00.724Z,7.00
2022-09-25T03:05:28.909Z,6.80
2022-09-25T03:08:23.406Z,7.60
2022-09-25T03:10:55.518Z,7.20
2022-09-25T03:13:32.112Z,7.70
2022-09-25T03:16:08.237Z,7.80
2022-09-25T03:18:36.264Z,7.10
2022-09-25T03:21:08.358Z,5.90
2022-09-25T03:23:39.430Z,6.80
2022-09-25T03:26:11.634Z,7.20
2022-09-25T03:28:39.730Z,7.10
2022-09-25T03:31:13.086Z,7.00
2022-09-25T03:33:45.878Z,6.60
2022-09-25T03:36:22.077Z,6.70
2022-09-25T03:38:59.160Z,6.90
2022-09-25T03:41:35.409Z,6.80
2022-09-25T03:46:38.556Z,7.10
2022-09-25T03:49:11.113Z,7.00
2022-09-25T03:51:39.953Z,6.90
2022-09-25T03:54:07.906Z,6.90
2022-09-25T03:56:41.869Z,7.20
2022-09-25T03:59:09.801Z,7.10
2022-09-25T04:01:43.379Z,6.80
2022-09-25T04:04:11.410Z,7.10
2022-09-25T04:06:43.201Z,6.60
2022-09-25T04:09:16.994Z,7.40
2022-09-25T04:11:49.034Z,6.50
2022-09-25T04:14:16.981Z,7.50
2022-09-25T04:16:49.156Z,6.80
2022-09-25T04:19:20.926Z,7.40
2022-09-25T04:21:52.582Z,7.00
2022-09-25T04:24:39.326Z,7.10
2022-09-25T04:27:14.528Z,7.30
2022-09-25T04:29:46.388Z,6.60
2022-09-25T04:32:34.085Z,6.80
2022-09-25T04:35:02.392Z,7.40
2022-09-25T04:37:30.931Z,7.10
2022-09-25T04:40:01.406Z,7.40
2022-09-25T04:42:29.193Z,7.10
2022-09-25T04:45:01.131Z,7.20
2022-09-25T04:47:32.835Z,6.70
2022-09-25T04:50:00.519Z,6.80
2022-09-25T04:52:32.275Z,6.80
2022-09-25T04:55:02.899Z,7.50
2022-09-25T04:57:57.232Z,6.80
2022-09-25T05:00:34.714Z,7.40
2022-09-25T05:03:09.531Z,6.90
2022-09-25T05:05:42.272Z,7.20
2022-09-25T05:08:14.274Z,7.20
2022-09-25T05:10:45.357Z,7.40
2022-09-25T05:13:13.295Z,7.10
2022-09-25T05:15:41.010Z,6.60
2022-09-25T05:18:21.398Z,7.30
2022-09-25T05:20:54.316Z,6.90
2022-09-25T05:23:26.162Z,7.60
2022-09-25T05:26:02.301Z,7.60
2022-09-25T05:28:37.460Z,6.70
2022-09-25T05:31:09.826Z,6.40
2022-09-25T05:33:37.607Z,7.50
2022-09-25T05:36:13.447Z,7.10
2022-09-25T05:38:41.392Z,7.20
2022-09-25T05:41:15.221Z,7.10
2022-09-25T05:43:47.965Z,6.80
2022-09-25T05:46:19.704Z,7.00
2022-09-25T05:48:47.798Z,6.80
2022-09-25T05:51:17.963Z,7.10
2022-09-25T05:53:47.702Z,7.40
2022-09-25T05:56:20.601Z,7.20
2022-09-25T05:58:53.048Z,7.60
2022-09-25T06:01:25.104Z,7.20
2022-09-25T06:03:52.983Z,6.80
2022-09-25T06:06:27.470Z,6.60
2022-09-25T06:08:57.416Z,6.50
2022-09-25T06:11:25.187Z,6.90
2022-09-25T06:13:57.890Z,6.40
2022-09-25T06:16:26.208Z,6.90
2022-09-25T06:18:55.284Z,7.20
2022-09-25T06:21:28.106Z,7.40
2022-09-25T06:23:58.558Z,6.90
2022-09-25T06:26:26.332Z,6.30
2022-09-25T06:29:02.848Z,6.20
2022-09-25T06:31:39.370Z,6.80
2022-09-25T06:34:12.830Z,5.00
2022-09-25T06:36:40.775Z,6.80
2022-09-25T06:39:10.670Z,6.10
2022-09-25T06:41:45.049Z,5.70
2022-09-25T06:44:13.154Z,6.30
2022-09-25T06:46:45.638Z,6.40
2022-09-25T06:49:18.538Z,6.90
2022-09-25T06:51:47.293Z,7.40
2022-09-25T06:54:15.912Z,6.70
2022-09-25T06:56:50.630Z,6.80
2022-09-25T06:59:19.978Z,5.60
2022-09-25T07:01:47.798Z,6.40
2022-09-25T07:04:15.741Z,6.10
2022-09-25T07:06:43.700Z,5.80
2022-09-25T07:09:13.052Z,6.10
2022-09-25T07:11:48.853Z,5.70
2022-09-25T07:14:16.553Z,5.90
2022-09-25T07:16:44.475Z,6.60
2022-09-25T07:19:12.159Z,5.90
2022-09-25T07:21:40.104Z,6.30
2022-09-25T07:24:09.495Z,5.70
2022-09-25T07:26:44.581Z,5.60
2022-09-25T07:29:14.351Z,5.80
2022-09-25T07:31:44.799Z,5.60
2022-09-25T07:34:16.629Z,6.10
2022-09-25T07:36:45.311Z,5.80
2022-09-25T07:39:18.151Z,6.70
2022-09-25T07:41:48.037Z,5.60
2022-09-25T07:44:29.182Z,5.70
2022-09-25T07:47:07.658Z,5.20
2022-09-25T07:49:35.728Z,5.70
2022-09-25T07:52:10.380Z,5.70
2022-09-25T07:54:42.210Z,5.40
2022-09-25T07:57:11.867Z,5.50
2022-09-25T07:59:42.452Z,6.20
2022-09-25T08:02:10.262Z,6.30
2022-09-25T08:04:38.645Z,5.20
2022-09-25T08:07:08.515Z,5.90
2022-09-25T08:09:36.489Z,5.10
2022-09-25T08:12:04.884Z,5.60
2022-09-25T08:14:35.097Z,5.50
2022-09-25T08:17:02.788Z,5.80
2022-09-25T08:19:34.691Z,5.20
2022-09-25T08:22:08.502Z,5.40
2022-09-25T08:24:40.363Z,5.10
2022-09-25T08:27:08.363Z,5.00
2022-09-25T08:29:38.502Z,4.90
2022-09-25T08:32:10.152Z,5.30
2022-09-25T08:34:44.286Z,5.30
2022-09-25T08:37:12.466Z,4.70
2022-09-25T08:39:44.352Z,4.80
2022-09-25T08:42:36.317Z,4.90
2022-09-25T08:45:43.163Z,4.90
2022-09-25T08:49:01.225Z,4.30
2022-09-25T08:51:38.766Z,4.60
2022-09-25T08:54:09.222Z,4.70
2022-09-25T08:56:40.511Z,4.30
2022-09-25T08:59:44.383Z,4.30
2022-09-25T09:02:45.710Z,4.10
2022-09-25T09:05:36.330Z,4.10
2022-09-25T09:08:11.639Z,4.30
2022-09-25T09:11:14.105Z,4.30
2022-09-25T09:13:55.089Z,4.20
2022-09-25T09:16:23.177Z,4.40
2022-09-25T09:18:55.800Z,4.40
2022-09-25T09:21:54.716Z,3.90
2022-09-25T09:24:27.429Z,4.10
2022-09-25T09:27:04.341Z,4.30
2022-09-25T09:30:09.347Z,3.80
2022-09-25T09:33:06.383Z,4.30
2022-09-25T09:36:11.817Z,4.00
2022-09-25T09:38:59.647Z,4.30
2022-09-25T09:41:52.180Z,4.20
2022-09-25T09:45:09.248Z,4.20
2022-09-25T09:48:13.575Z,4.60
2022-09-25T09:50:53.366Z,4.10
2022-09-25T09:53:48.939Z,4.10
2022-09-25T09:56:31.484Z,4.20
2022-09-25T09:59:29.761Z,4.10
2022-09-25T10:02:24.064Z,3.90
2022-09-25T10:04:56.315Z,4.00
2022-09-25T10:07:28.481Z,3.80
2022-09-25T10:09:57.801Z,4.00
2022-09-25T10:12:34.932Z,3.90
2022-09-25T10:15:07.844Z,4.60
2022-09-25T10:20:19.725Z,4.60
2022-09-25T10:22:53.218Z,3.80
2022-09-25T10:25:37.565Z,4.00
2022-09-25T10:28:28.507Z,4.20
2022-09-25T10:30:58.555Z,4.30
2022-09-25T10:33:30.304Z,4.40
2022-09-25T10:35:59.055Z,4.00
2022-09-25T10:38:53.423Z,4.50
2022-09-25T10:41:27.703Z,4.20
2022-09-25T10:44:00.188Z,5.10
2022-09-25T10:46:50.045Z,4.60
2022-09-25T10:49:41.600Z,4.50
2022-09-25T10:52:13.102Z,4.30
2022-09-25T10:54:45.460Z,4.40
2022-09-25T10:57:34.693Z,4.40
2022-09-25T11:00:07.741Z,3.90
2022-09-25T11:02:41.064Z,4.60
2022-09-25T11:05:20.284Z,4.10
2022-09-25T11:07:52.730Z,4.30
2022-09-25T11:10:35.977Z,5.30
2022-09-25T11:13:09.563Z,4.90
2022-09-25T11:15:39.508Z,4.40
2022-09-25T11:18:32.997Z,4.50
2022-09-25T11:21:03.564Z,4.80
2022-09-25T11:23:36.049Z,4.10
2022-09-25T11:26:19.188Z,4.30
2022-09-25T11:29:04.965Z,4.90
2022-09-25T11:31:41.360Z,4.40
2022-09-25T11:34:40.630Z,4.70
2022-09-25T11:37:24.857Z,4.50
2022-09-25T11:40:46.631Z,4.60
2022-09-25T11:43:25.853Z,4.20
2022-09-25T11:46:03.173Z,4.50
2022-09-25T11:48:46.929Z,4.50
2022-09-25T11:51:37.553Z,4.60
2022-09-25T11:54:33.820Z,4.10
2022-09-25T11:57:18.208Z,4.50
2022-09-25T12:00:04.664Z,4.80
2022-09-25T12:03:08.281Z,4.50
2022-09-25T12:05:57.066Z,4.80
2022-09-25T12:08:36.063Z,4.90
2022-09-25T12:11:12.897Z,5.00
2022-09-25T12:14:17.253Z,4.80
2022-09-25T12:17:05.265Z,4.70
2022-09-25T12:20:11.963Z,4.50
2022-09-25T12:23:05.730Z,4.80
2022-09-25T12:26:03.635Z,5.40
2022-09-25T12:28:42.700Z,4.70
2022-09-25T12:31:30.890Z,4.90
2022-09-25T12:34:28.103Z,4.80
2022-09-25T12:37:27.388Z,5.00
2022-09-25T12:40:05.506Z,4.60
2022-09-25T12:42:57.679Z,4.60
2022-09-25T12:45:52.724Z,4.80
2022-09-25T12:48:33.107Z,5.10
2022-09-25T12:51:16.483Z,4.50
2022-09-25T12:53:49.049Z,4.80
2022-09-25T12:56:27.909Z,5.60
2022-09-25T12:59:17.352Z,4.90
2022-09-25T13:02:07.869Z,5.20
2022-09-25T13:05:15.908Z,5.70
2022-09-25T13:07:59.573Z,5.50
2022-09-25T13:10:38.390Z,5.40
2022-09-25T13:13:21.280Z,6.50
2022-09-25T13:15:54.860Z,5.40
2022-09-25T13:18:26.155Z,5.10
2022-09-25T13:21:04.373Z,5.10
2022-09-25T13:23:42.033Z,5.30
2022-09-25T13:26:33.755Z,5.00
2022-09-25T13:29:14.722Z,5.10
2022-09-25T13:31:46.172Z,5.50
2022-09-25T13:34:17.645Z,5.30
2022-09-25T13:36:48.738Z,4.70
2022-09-25T13:39:44.098Z,5.00
2022-09-25T13:42:33.367Z,5.30
2022-09-25T13:45:23.007Z,4.70
2022-09-25T13:48:07.479Z,5.10
2022-09-25T13:50:41.593Z,5.00
2022-09-25T13:53:18.139Z,5.10
2022-09-25T13:55:55.474Z,5.20
2022-09-25T13:58:26.102Z,5.80
2022-09-25T14:00:58.282Z,5.20
2022-09-25T14:03:46.797Z,5.10
2022-09-25T14:06:42.075Z,5.40
2022-09-25T14:09:19.062Z,8.20
2022-09-25T14:12:01.103Z,5.40
2022-09-25T14:14:46.276Z,5.00
2022-09-25T14:17:17.700Z,5.00
2022-09-25T14:19:51.516Z,5.20
2022-09-25T14:22:21.633Z,5.10
2022-09-25T14:24:50.583Z,4.80
2022-09-25T14:27:24.091Z,5.80
2022-09-25T14:29:52.194Z,4.80
2022-09-25T14:32:55.186Z,5.10
2022-09-25T14:35:39.411Z,5.00
2022-09-25T14:38:25.785Z,5.20
2022-09-25T14:41:01.556Z,5.50
2022-09-25T14:44:02.535Z,5.20
2022-09-25T14:46:34.345Z,5.80
2022-09-25T14:49:21.195Z,5.50
2022-09-25T14:51:49.206Z,5.50
2022-09-25T14:54:25.592Z,6.00
2022-09-25T14:56:59.266Z,5.90
2022-09-25T14:59:47.032Z,6.30
2022-09-25T15:02:24.474Z,6.20
2022-09-25T15:04:58.410Z,5.70
2022-09-25T15:07:29.124Z,6.00
2022-09-25T15:10:00.300Z,6.50
2022-09-25T15:12:36.389Z,5.80
2022-09-25T15:15:14.762Z,6.50
2022-09-25T15:17:51.355Z,6.40
2022-09-25T15:20:26.673Z,6.60
2022-09-25T15:23:02.574Z,6.30
2022-09-25T15:25:52.637Z,5.60
2022-09-25T15:28:26.126Z,5.70
2022-09-25T15:33:37.482Z,5.90
2022-09-25T15:36:25.501Z,6.20
2022-09-25T15:39:00.223Z,6.10
2022-09-25T15:41:30.243Z,5.80
2022-09-25T15:44:25.617Z,6.30
2022-09-25T15:46:59.177Z,5.80
2022-09-25T15:49:45.306Z,6.10
2022-09-25T15:52:35.946Z,6.20
2022-09-25T15:55:14.732Z,6.00
2022-09-25T15:57:46.904Z,6.90
2022-09-25T16:00:47.112Z,7.10
2022-09-25T16:03:42.298Z,7.20
2022-09-25T16:06:18.779Z,6.90
2022-09-25T16:08:48.576Z,7.40
2022-09-25T16:11:22.875Z,7.50
2022-09-25T16:14:12.215Z,6.40
2022-09-25T16:16:50.545Z,7.10
2022-09-25T16:19:27.846Z,7.30
2022-09-25T16:22:00.308Z,7.40
2022-09-25T16:24:29.793Z,8.00
2022-09-25T16:27:01.498Z,8.30
2022-09-25T16:29:36.693Z,8.20
2022-09-25T16:32:21.307Z,8.10
2022-09-25T16:35:24.013Z,8.70
2022-09-25T16:37:55.827Z,8.40
2022-09-25T16:40:26.344Z,9.50
2022-09-25T16:42:59.767Z,8.90
2022-09-25T16:45:35.542Z,8.80
2022-09-25T16:48:27.717Z,8.80
2022-09-25T16:50:58.789Z,9.60
2022-09-25T16:53:28.980Z,9.50
2022-09-25T16:56:01.572Z,8.50
2022-09-25T16:58:29.586Z,9.10
2022-09-25T17:00:59.487Z,10.00
2022-09-25T17:03:47.885Z,10.10
2022-09-25T17:06:23.812Z,9.50
2022-09-25T17:08:55.334Z,9.90
2022-09-25T17:11:23.566Z,10.10
2022-09-25T17:13:53.306Z,10.60
2022-09-25T17:16:21.186Z,10.20
2022-09-25T17:18:49.215Z,10.70
2022-09-25T17:21:17.338Z,10.40
2022-09-25T17:23:48.884Z,10.20
2022-09-25T17:26:23.581Z,9.60
2022-09-25T17:28:51.941Z,10.30
2022-09-25T17:31:23.660Z,9.50
2022-09-25T17:33:51.832Z,10.90
2022-09-25T17:36:20.710Z,9.00
2022-09-25T17:38:48.795Z,10.00
2022-09-25T17:41:30.361Z,10.10
2022-09-25T17:44:03.370Z,10.60
2022-09-25T17:46:34.665Z,10.30
2022-09-25T17:49:07.014Z,10.20
2022-09-25T17:51:37.261Z,9.70
2022-09-25T17:54:06.867Z,9.60
2022-09-25T17:56:39.958Z,9.70
2022-09-25T17:59:12.320Z,9.70
2022-09-25T18:01:40.548Z,10.40
2022-09-25T18:04:21.441Z,10.50
2022-09-25T18:06:49.266Z,9.60
2022-09-25T18:09:19.054Z,9.10
2022-09-25T18:11:47.693Z,9.90
2022-09-25T18:14:17.431Z,9.40
2022-09-25T18:16:48.776Z,9.90
2022-09-25T18:19:40.189Z,8.70
2022-09-25T18:22:19.395Z,9.90
2022-09-25T18:24:58.356Z,8.90
2022-09-25T18:27:32.516Z,10.10
2022-09-25T18:30:04.429Z,9.80
2022-09-25T18:32:34.412Z,9.90
2022-09-25T18:35:03.038Z,9.70
2022-09-25T18:37:34.499Z,9.60
2022-09-25T18:40:10.004Z,10.30
2022-09-25T18:42:39.062Z,10.00
2022-09-25T18:45:12.333Z,10.20
2022-09-25T18:47:45.300Z,9.70
2022-09-25T18:50:20.947Z,10.20
2022-09-25T18:52:49.062Z,10.60
2022-09-25T18:55:17.910Z,10.10
2022-09-25T18:57:45.773Z,9.90
2022-09-25T19:00:14.052Z,10.00
2022-09-25T19:02:43.295Z,10.10
2022-09-25T19:05:12.635Z,9.80
2022-09-25T19:07:42.255Z,10.40
2022-09-25T19:10:11.610Z,10.70
2022-09-25T19:12:40.388Z,9.90
2022-09-25T19:15:10.459Z,9.20
2022-09-25T19:17:38.161Z,9.80
2022-09-25T19:20:08.463Z,9.70
2022-09-25T19:22:37.161Z,9.60
2022-09-25T19:25:06.302Z,9.20
2022-09-25T19:27:34.368Z,10.00
2022-09-25T19:30:02.099Z,9.10
2022-09-25T19:32:30.821Z,9.50
2022-09-25T19:35:00.316Z,9.20
2022-09-25T19:37:33.481Z,8.40
2022-09-25T19:40:20.871Z,8.90
2022-09-25T19:42:50.802Z,9.10
2022-09-25T19:45:20.726Z,8.20
2022-09-25T19:47:49.311Z,8.70
2022-09-25T19:50:19.540Z,9.90
2022-09-25T19:52:51.067Z,9.20
2022-09-25T19:55:20.512Z,9.30
2022-09-25T19:57:48.572Z,9.00
2022-09-25T20:00:18.358Z,8.40
2022-09-25T20:02:47.772Z,9.00
2022-09-25T20:05:17.938Z,8.70
2022-09-25T20:07:46.288Z,8.30
2022-09-25T20:10:15.303Z,8.80
2022-09-25T20:12:43.219Z,9.00
2022-09-25T20:15:11.613Z,8.40
2022-09-25T20:17:39.751Z,8.20
2022-09-25T20:20:08.855Z,8.30
2022-09-25T20:22:36.987Z,8.20
2022-09-25T20:25:06.210Z,8.10
2022-09-25T20:27:34.394Z,8.60
2022-09-25T20:30:02.363Z,7.90
2022-09-25T20:32:32.415Z,8.70
2022-09-25T20:35:00.767Z,7.70
2022-09-25T20:37:29.309Z,8.20
2022-09-25T20:39:57.447Z,7.50
2022-09-25T20:42:25.920Z,7.50
2022-09-25T20:44:56.080Z,8.90
2022-09-25T20:47:24.064Z,8.10
2022-09-25T20:49:52.814Z,8.00
2022-09-25T20:52:20.741Z,8.40
2022-09-25T20:54:49.141Z,8.10
2022-09-25T20:57:17.282Z,7.60
2022-09-25T20:59:44.975Z,7.40
2022-09-25T21:02:14.315Z,8.00
2022-09-25T21:04:46.432Z,8.20
2022-09-25T21:07:16.963Z,8.00
2022-09-25T21:09:46.226Z,7.90
2022-09-25T21:12:15.313Z,7.40
2022-09-25T21:14:43.044Z,7.50
2022-09-25T21:17:11.485Z,8.30
2022-09-25T21:19:40.598Z,8.30
2022-09-25T21:22:08.871Z,8.40
2022-09-25T21:24:37.464Z,8.10
2022-09-25T21:27:06.263Z,8.10
2022-09-25T21:29:34.332Z,8.10
2022-09-25T21:32:03.892Z,7.50
2022-09-25T21:34:32.365Z,8.00
2022-09-25T21:37:00.779Z,7.70
2022-09-25T21:39:29.128Z,7.80
2022-09-25T21:41:57.054Z,8.30
2022-09-25T21:44:26.670Z,7.60
2022-09-25T21:46:54.827Z,7.60
2022-09-25T21:49:22.715Z,7.50
2022-09-25T21:51:51.382Z,7.30
2022-09-25T21:54:21.603Z,7.10
2022-09-25T21:56:49.347Z,7.20
2022-09-25T21:59:18.917Z,7.00
2022-09-25T22:01:49.515Z,7.10
2022-09-25T22:04:17.971Z,7.20
2022-09-25T22:06:48.914Z,7.20
2022-09-25T22:09:20.538Z,7.60
2022-09-25T22:11:51.836Z,7.10
2022-09-25T22:14:21.887Z,7.00
2022-09-25T22:16:53.402Z,7.10
2022-09-25T22:19:26.254Z,6.80
2022-09-25T22:21:58.628Z,7.20
2022-09-25T22:24:27.762Z,6.90
2022-09-25T22:26:56.759Z,7.40
2022-09-25T22:29:27.460Z,7.00
2022-09-25T22:31:55.385Z,6.40
2022-09-25T22:34:28.253Z,6.50
2022-09-25T22:37:00.036Z,6.70
2022-09-25T22:39:31.714Z,6.70
2022-09-25T22:42:00.308Z,6.70
2022-09-25T22:44:28.887Z,5.90
2022-09-25T22:46:58.252Z,6.90
2022-09-25T22:49:26.874Z,6.40
2022-09-25T22:51:55.510Z,6.20
2022-09-25T22:54:23.242Z,6.00
2022-09-25T22:56:53.560Z,6.30
2022-09-25T22:59:22.150Z,6.40
2022-09-25T23:01:54.585Z,5.90
2022-09-25T23:04:24.819Z,6.30
2022-09-25T23:06:53.555Z,6.20
2022-09-25T23:09:27.363Z,6.20
2022-09-25T23:11:57.593Z,6.60
2022-09-25T23:14:30.485Z,5.90
2022-09-25T23:17:03.501Z,6.80
2022-09-25T23:19:32.269Z,6.10
2022-09-25T23:22:00.981Z,6.10
2022-09-25T23:24:28.957Z,6.10
2022-09-25T23:26:56.971Z,5.80
2022-09-25T23:29:24.932Z,6.20
2022-09-25T23:31:53.536Z,6.20
2022-09-25T23:34:22.603Z,6.00
2022-09-25T23:36:50.548Z,5.80
2022-09-25T23:39:20.340Z,5.70
2022-09-25T23:41:49.007Z,5.70
2022-09-25T23:44:18.249Z,5.30
2022-09-25T23:46:47.670Z,5.60
2022-09-25T23:49:15.817Z,5.90
2022-09-25T23:51:46.945Z,5.70
2022-09-25T23:54:15.701Z,5.50
2022-09-25T23:56:44.910Z,5.80
2022-09-25T23:59:14.013Z,5.60
